createdAt,value
2023-04-29T00:00:07.442Z,37.59
2023-04-29T00:02:39.786Z,37.61
2023-04-29T00:05:06.989Z,37.48
2023-04-29T00:07:33.907Z,37.70
2023-04-29T00:10:00.530Z,37.83
2023-04-29T00:12:28.089Z,37.80
2023-04-29T00:14:54.613Z,37.80
2023-04-29T00:17:21.196Z,37.85
2023-04-29T00:19:48.188Z,37.56
2023-04-29T00:22:14.737Z,37.62
2023-04-29T00:24:41.314Z,37.56
2023-04-29T00:27:07.805Z,37.67
2023-04-29T00:29:34.320Z,37.54
2023-04-29T00:32:00.854Z,37.61
2023-04-29T00:34:27.534Z,37.61
2023-04-29T00:36:54.612Z,37.88
2023-04-29T00:39:21.696Z,37.96
2023-04-29T00:41:48.232Z,37.96
2023-04-29T00:44:14.747Z,37.30
2023-04-29T00:46:41.501Z,37.94
2023-04-29T00:49:08.322Z,37.85
2023-04-29T00:51:36.486Z,37.59
2023-04-29T00:54:04.474Z,37.57
2023-04-29T00:56:34.271Z,37.68
2023-04-29T00:59:02.669Z,37.86
2023-04-29T01:01:32.600Z,38.12
2023-04-29T01:03:59.630Z,40.12
2023-04-29T01:06:57.605Z,41.37
2023-04-29T01:09:49.853Z,41.68
2023-04-29T01:12:22.834Z,42.35
2023-04-29T01:14:54.560Z,44.76
2023-04-29T01:17:26.790Z,42.68
2023-04-29T01:19:57.660Z,43.31
2023-04-29T01:22:24.217Z,43.08
2023-04-29T01:24:51.178Z,43.21
2023-04-29T01:27:25.872Z,44.96
2023-04-29T01:30:22.251Z,46.13
2023-04-29T01:32:53.847Z,44.41
2023-04-29T01:35:49.452Z,44.28
2023-04-29T01:38:38.914Z,45.35
2023-04-29T01:41:16.008Z,44.82
2023-04-29T01:43:48.455Z,44.03
2023-04-29T01:46:20.388Z,43.98
2023-04-29T01:48:48.166Z,43.85
2023-04-29T01:51:15.005Z,43.84
2023-04-29T01:53:41.807Z,44.00
2023-04-29T01:56:08.487Z,44.04
2023-04-29T01:58:45.414Z,43.86
2023-04-29T02:01:31.583Z,43.82
2023-04-29T02:03:58.367Z,43.81
2023-04-29T02:06:25.433Z,43.84
2023-04-29T02:08:57.674Z,43.88
2023-04-29T02:11:24.539Z,43.92
2023-04-29T02:13:54.759Z,43.89
2023-04-29T02:16:22.085Z,43.88
2023-04-29T02:18:56.049Z,44.34
2023-04-29T02:21:22.655Z,44.52
2023-04-29T02:23:49.191Z,45.06
2023-04-29T02:26:15.747Z,45.19
2023-04-29T02:28:42.489Z,45.43
2023-04-29T02:31:09.064Z,46.03
2023-04-29T02:33:36.171Z,46.02
2023-04-29T02:36:02.758Z,45.59
2023-04-29T02:38:29.319Z,45.69
2023-04-29T02:40:55.799Z,45.26
2023-04-29T02:43:22.567Z,45.38
2023-04-29T02:45:49.162Z,45.54
2023-04-29T02:48:16.073Z,45.12
2023-04-29T02:50:42.580Z,45.41
2023-04-29T02:53:09.722Z,45.05
2023-04-29T02:55:36.566Z,45.11
2023-04-29T02:58:07.825Z,44.83
2023-04-29T03:00:34.334Z,44.88
2023-04-29T03:03:01.742Z,44.89
2023-04-29T03:05:28.586Z,44.68
2023-04-29T03:07:55.278Z,44.69
2023-04-29T03:10:22.011Z,44.31
2023-04-29T03:12:48.574Z,44.67
2023-04-29T03:15:15.742Z,44.82
2023-04-29T03:17:42.810Z,44.89
2023-04-29T03:20:10.903Z,44.65
2023-04-29T03:22:37.469Z,44.86
2023-04-29T03:25:04.832Z,44.93
2023-04-29T03:27:31.473Z,44.59
2023-04-29T03:29:58.000Z,44.85
2023-04-29T03:32:24.596Z,44.86
2023-04-29T03:34:51.253Z,44.75
2023-04-29T03:37:38.095Z,44.77
2023-04-29T03:40:27.982Z,44.65
2023-04-29T03:42:54.527Z,44.84
2023-04-29T03:45:21.213Z,44.78
2023-04-29T03:47:47.812Z,45.07
2023-04-29T03:50:14.379Z,44.93
2023-04-29T03:52:41.425Z,44.91
2023-04-29T03:55:14.320Z,44.96
2023-04-29T03:57:42.675Z,45.29
2023-04-29T04:00:10.502Z,44.78
2023-04-29T04:02:40.064Z,44.90
2023-04-29T04:05:08.756Z,44.87
2023-04-29T04:07:35.610Z,44.83
2023-04-29T04:10:20.733Z,45.01
2023-04-29T04:12:47.611Z,45.11
2023-04-29T04:15:14.470Z,45.13
2023-04-29T04:17:41.043Z,45.01
2023-04-29T04:20:08.048Z,45.10
2023-04-29T04:22:34.652Z,45.11
2023-04-29T04:25:13.383Z,45.20
2023-04-29T04:27:39.915Z,45.15
2023-04-29T04:30:09.803Z,45.23
2023-04-29T04:32:36.775Z,45.27
2023-04-29T04:35:03.728Z,45.35
2023-04-29T04:37:30.247Z,45.44
2023-04-29T04:40:00.567Z,45.42
2023-04-29T04:42:27.294Z,45.61
2023-04-29T04:44:57.326Z,45.72
2023-04-29T04:47:48.364Z,45.83
2023-04-29T04:50:21.970Z,46.39
2023-04-29T04:52:49.958Z,46.57
2023-04-29T04:55:31.764Z,46.89
2023-04-29T04:57:58.660Z,47.31
2023-04-29T05:00:25.251Z,47.70
2023-04-29T05:02:52.131Z,47.68
2023-04-29T05:05:18.886Z,47.16
2023-04-29T05:07:45.501Z,47.52
2023-04-29T05:10:12.264Z,47.13
2023-04-29T05:12:45.938Z,47.57
2023-04-29T05:15:12.959Z,47.07
2023-04-29T05:17:39.668Z,47.30
2023-04-29T05:20:07.176Z,47.12
2023-04-29T05:22:34.156Z,46.85
2023-04-29T05:25:03.181Z,46.75
2023-04-29T05:27:31.504Z,46.37
2023-04-29T05:29:58.231Z,46.39
2023-04-29T05:32:24.886Z,46.17
2023-04-29T05:34:51.593Z,46.13
2023-04-29T05:37:18.100Z,46.56
2023-04-29T05:40:00.348Z,46.21
2023-04-29T05:42:27.497Z,46.51
2023-04-29T05:44:54.103Z,46.46
2023-04-29T05:47:20.675Z,46.59
2023-04-29T05:49:47.630Z,46.51
2023-04-29T05:52:14.169Z,46.26
2023-04-29T05:54:45.067Z,46.16
2023-04-29T05:57:12.131Z,46.05
2023-04-29T05:59:40.112Z,46.49
2023-04-29T06:02:06.709Z,46.48
2023-04-29T06:04:34.590Z,46.34
2023-04-29T06:07:24.320Z,46.60
2023-04-29T06:09:57.869Z,46.64
2023-04-29T06:12:25.759Z,46.88
2023-04-29T06:14:52.410Z,46.92
2023-04-29T06:17:19.996Z,46.89
2023-04-29T06:19:46.511Z,47.09
2023-04-29T06:22:13.324Z,46.59
2023-04-29T06:24:45.787Z,46.87
2023-04-29T06:27:14.741Z,46.56
2023-04-29T06:29:42.038Z,46.77
2023-04-29T06:32:08.754Z,46.58
2023-04-29T06:34:36.158Z,46.44
2023-04-29T06:37:21.842Z,46.02
2023-04-29T06:40:06.141Z,46.43
2023-04-29T06:42:52.519Z,46.23
2023-04-29T06:45:37.579Z,46.23
2023-04-29T06:48:08.920Z,46.08
2023-04-29T06:50:38.778Z,46.95
2023-04-29T06:53:07.023Z,46.77
2023-04-29T06:55:35.577Z,47.22
2023-04-29T06:58:04.478Z,46.82
2023-04-29T07:00:31.900Z,46.25
2023-04-29T07:02:58.783Z,46.39
2023-04-29T07:05:25.424Z,46.26
2023-04-29T07:07:51.955Z,46.71
2023-04-29T07:10:18.475Z,47.13
2023-04-29T07:12:46.692Z,46.60
2023-04-29T07:15:14.592Z,46.96
2023-04-29T07:17:41.186Z,47.05
2023-04-29T07:20:08.404Z,46.50
2023-04-29T07:22:34.916Z,46.29
2023-04-29T07:25:02.514Z,46.08
2023-04-29T07:27:29.571Z,45.23
2023-04-29T07:29:56.853Z,46.05
2023-04-29T07:32:23.379Z,46.07
2023-04-29T07:34:50.010Z,46.05
2023-04-29T07:37:16.826Z,46.10
2023-04-29T07:39:43.335Z,46.29
2023-04-29T07:42:10.386Z,46.54
2023-04-29T07:44:36.971Z,46.44
2023-04-29T07:47:03.481Z,46.44
2023-04-29T07:49:30.368Z,46.23
2023-04-29T07:51:57.075Z,46.04
2023-04-29T07:54:23.784Z,46.01
2023-04-29T07:56:50.824Z,46.15
2023-04-29T07:59:19.451Z,46.37
2023-04-29T08:01:46.729Z,46.77
2023-04-29T08:04:13.969Z,46.93
2023-04-29T08:06:48.903Z,46.08
2023-04-29T08:09:16.258Z,46.62
2023-04-29T08:11:43.488Z,46.32
2023-04-29T08:14:12.526Z,46.53
2023-04-29T08:16:39.235Z,46.42
2023-04-29T08:19:06.042Z,46.52
2023-04-29T08:21:32.848Z,46.86
2023-04-29T08:23:59.466Z,46.29
2023-04-29T08:26:26.763Z,46.05
2023-04-29T08:28:53.317Z,46.24
2023-04-29T08:31:21.394Z,46.31
2023-04-29T08:33:48.284Z,46.31
2023-04-29T08:36:14.850Z,46.25
2023-04-29T08:38:41.410Z,45.95
2023-04-29T08:41:09.689Z,45.78
2023-04-29T08:43:40.842Z,45.94
2023-04-29T08:46:07.406Z,43.86
2023-04-29T08:48:34.688Z,45.63
2023-04-29T08:51:02.461Z,45.74
2023-04-29T08:53:29.195Z,45.81
2023-04-29T08:55:58.498Z,45.98
2023-04-29T08:58:26.463Z,46.16
2023-04-29T09:00:53.296Z,45.85
2023-04-29T09:03:25.282Z,46.01
2023-04-29T09:05:53.960Z,46.33
2023-04-29T09:08:22.486Z,46.65
2023-04-29T09:10:49.385Z,46.91
2023-04-29T09:13:29.705Z,46.17
2023-04-29T09:15:56.654Z,46.44
2023-04-29T09:18:41.990Z,46.30
2023-04-29T09:21:23.014Z,46.13
2023-04-29T09:24:00.243Z,45.97
2023-04-29T09:26:27.392Z,46.84
2023-04-29T09:29:18.324Z,45.79
2023-04-29T09:31:45.514Z,46.14
2023-04-29T09:34:13.060Z,46.04
2023-04-29T09:36:39.510Z,46.05
2023-04-29T09:39:11.842Z,45.91
2023-04-29T09:41:59.752Z,45.22
2023-04-29T09:44:33.877Z,45.63
2023-04-29T09:47:04.231Z,45.51
2023-04-29T09:49:37.267Z,45.72
2023-04-29T09:52:05.819Z,45.94
2023-04-29T09:54:34.415Z,46.46
2023-04-29T09:57:02.380Z,46.29
2023-04-29T09:59:28.974Z,46.21
2023-04-29T10:01:57.076Z,46.06
2023-04-29T10:04:26.239Z,46.00
2023-04-29T10:06:54.428Z,45.99
2023-04-29T10:09:22.866Z,45.95
2023-04-29T10:11:53.608Z,45.86
2023-04-29T10:14:27.025Z,45.42
2023-04-29T10:17:03.998Z,45.13
2023-04-29T10:19:47.543Z,44.52
2023-04-29T10:22:20.623Z,45.12
2023-04-29T10:24:47.994Z,45.20
2023-04-29T10:27:15.859Z,45.26
2023-04-29T10:29:43.773Z,45.43
2023-04-29T10:32:10.947Z,45.38
2023-04-29T10:34:39.661Z,45.33
2023-04-29T10:37:10.418Z,45.28
2023-04-29T10:39:46.164Z,45.12
2023-04-29T10:42:25.774Z,45.08
2023-04-29T10:45:28.823Z,44.04
2023-04-29T10:48:06.109Z,44.53
2023-04-29T10:50:33.920Z,44.61
2023-04-29T10:53:04.436Z,44.95
2023-04-29T10:55:32.196Z,45.27
2023-04-29T10:57:58.735Z,45.50
2023-04-29T11:00:29.788Z,45.35
2023-04-29T11:03:01.161Z,45.05
2023-04-29T11:05:35.643Z,44.44
2023-04-29T11:08:23.056Z,44.43
2023-04-29T11:11:01.965Z,44.30
2023-04-29T11:13:30.326Z,44.83
2023-04-29T11:16:05.337Z,44.56
2023-04-29T11:18:32.436Z,44.81
2023-04-29T11:21:08.114Z,44.17
2023-04-29T11:23:37.744Z,43.96
2023-04-29T11:26:04.532Z,43.63
2023-04-29T11:28:32.045Z,43.77
2023-04-29T11:30:58.957Z,43.56
2023-04-29T11:33:27.816Z,43.46
2023-04-29T11:35:54.753Z,43.42
2023-04-29T11:38:28.229Z,42.81
2023-04-29T11:40:55.875Z,43.06
2023-04-29T11:43:23.562Z,42.80
2023-04-29T11:45:51.654Z,42.96
2023-04-29T11:48:25.392Z,42.57
2023-04-29T11:50:54.154Z,42.55
2023-04-29T11:53:22.109Z,42.59
2023-04-29T11:55:48.633Z,42.34
2023-04-29T11:58:18.668Z,42.30
2023-04-29T12:00:47.125Z,42.34
2023-04-29T12:03:15.776Z,41.85
2023-04-29T12:05:52.927Z,41.35
2023-04-29T12:08:23.356Z,41.43
2023-04-29T12:10:50.246Z,41.61
2023-04-29T12:13:18.003Z,41.71
2023-04-29T12:15:49.077Z,41.60
2023-04-29T12:18:16.259Z,40.16
2023-04-29T12:20:42.867Z,40.97
2023-04-29T12:23:16.465Z,40.78
2023-04-29T12:25:49.179Z,41.02
2023-04-29T12:28:15.963Z,41.45
2023-04-29T12:30:44.531Z,41.55
2023-04-29T12:33:11.090Z,41.36
2023-04-29T12:35:37.646Z,41.31
2023-04-29T12:38:04.188Z,41.17
2023-04-29T12:40:32.490Z,41.16
2023-04-29T12:43:07.120Z,41.04
2023-04-29T12:45:34.583Z,41.04
2023-04-29T12:48:01.805Z,40.94
2023-04-29T12:50:37.527Z,40.56
2023-04-29T12:53:05.172Z,40.79
2023-04-29T12:55:32.855Z,40.42
2023-04-29T12:58:01.098Z,40.00
2023-04-29T13:00:27.975Z,39.72
2023-04-29T13:02:55.221Z,39.29
2023-04-29T13:07:49.873Z,39.36
2023-04-29T13:10:16.401Z,38.74
2023-04-29T13:12:42.942Z,38.58
2023-04-29T13:15:10.366Z,38.42
2023-04-29T13:17:37.288Z,38.04
2023-04-29T13:20:05.062Z,37.62
2023-04-29T13:22:32.601Z,37.60
2023-04-29T13:24:59.182Z,37.26
2023-04-29T13:27:25.733Z,36.89
2023-04-29T13:29:52.461Z,36.93
2023-04-29T13:32:21.543Z,36.44
2023-04-29T13:34:48.225Z,36.11
2023-04-29T13:37:14.783Z,36.31
2023-04-29T13:39:45.319Z,36.14
2023-04-29T13:42:15.493Z,36.16
2023-04-29T13:44:52.602Z,35.81
2023-04-29T13:47:25.197Z,36.13
2023-04-29T13:55:14.862Z,33.48
2023-04-29T14:00:20.123Z,32.48
2023-04-29T14:05:25.760Z,32.43
2023-04-29T14:07:52.400Z,32.00
2023-04-29T14:10:18.964Z,32.07
2023-04-29T14:12:45.640Z,32.15
2023-04-29T14:15:12.208Z,32.61
2023-04-29T14:17:38.733Z,32.58
2023-04-29T14:20:05.859Z,33.03
2023-04-29T14:22:32.375Z,32.47
2023-04-29T14:24:58.893Z,32.51
2023-04-29T14:27:25.595Z,32.56
2023-04-29T14:29:52.070Z,32.81
2023-04-29T14:32:18.647Z,32.71
2023-04-29T14:34:45.189Z,32.93
2023-04-29T14:37:12.113Z,33.01
2023-04-29T14:39:38.719Z,33.08
2023-04-29T14:42:05.371Z,33.03
2023-04-29T14:44:31.890Z,32.78
2023-04-29T14:46:58.376Z,32.55
2023-04-29T14:49:24.952Z,32.09
2023-04-29T14:51:51.648Z,31.70
2023-04-29T14:54:18.277Z,31.72
2023-04-29T14:56:44.868Z,31.94
2023-04-29T14:59:11.403Z,32.16
2023-04-29T15:01:39.704Z,31.97
2023-04-29T15:04:06.378Z,31.87
2023-04-29T15:06:33.048Z,32.31
2023-04-29T15:08:59.967Z,31.73
2023-04-29T15:11:26.552Z,32.02
2023-04-29T15:13:53.050Z,31.48
2023-04-29T15:16:19.670Z,31.41
2023-04-29T15:18:46.527Z,31.59
2023-04-29T15:21:13.132Z,31.78
2023-04-29T15:23:39.653Z,31.66
2023-04-29T15:26:07.153Z,31.49
2023-04-29T15:28:33.751Z,31.49
2023-04-29T15:31:01.864Z,31.32
2023-04-29T15:33:28.418Z,31.57
2023-04-29T15:35:56.657Z,32.03
2023-04-29T15:38:23.288Z,32.18
2023-04-29T15:40:49.933Z,32.10
2023-04-29T15:43:16.658Z,32.05
2023-04-29T15:45:44.474Z,32.52
2023-04-29T15:48:11.010Z,32.36
2023-04-29T15:50:37.523Z,32.55
2023-04-29T15:53:04.010Z,32.85
2023-04-29T15:55:30.515Z,33.10
2023-04-29T15:57:57.002Z,32.91
2023-04-29T16:00:23.538Z,32.64
2023-04-29T16:02:50.095Z,32.86
2023-04-29T16:05:16.667Z,33.22
2023-04-29T16:07:43.178Z,33.14
2023-04-29T16:10:09.998Z,33.00
2023-04-29T16:12:36.516Z,33.24
2023-04-29T16:15:03.349Z,33.21
2023-04-29T16:17:31.888Z,33.06
2023-04-29T16:19:58.533Z,33.26
2023-04-29T16:22:25.016Z,33.48
2023-04-29T16:24:51.542Z,33.52
2023-04-29T16:27:18.807Z,33.21
2023-04-29T16:29:45.453Z,33.48
2023-04-29T16:32:11.990Z,33.65
2023-04-29T16:34:38.534Z,33.65
2023-04-29T16:37:05.122Z,33.78
2023-04-29T16:39:31.680Z,33.45
2023-04-29T16:41:59.513Z,33.31
2023-04-29T16:44:26.201Z,33.15
2023-04-29T16:46:52.842Z,33.02
2023-04-29T16:49:24.977Z,33.13
2023-04-29T16:51:51.505Z,32.86
2023-04-29T16:54:18.042Z,32.06
2023-04-29T16:56:44.650Z,31.38
2023-04-29T16:59:12.455Z,30.49
2023-04-29T17:01:39.319Z,30.05
2023-04-29T17:04:06.855Z,29.92
2023-04-29T17:06:34.723Z,29.87
2023-04-29T17:09:02.479Z,29.46
2023-04-29T17:11:29.195Z,29.71
2023-04-29T17:13:55.673Z,29.06
2023-04-29T17:16:22.199Z,29.02
2023-04-29T17:18:48.697Z,29.00
2023-04-29T17:21:15.411Z,28.84
2023-04-29T17:23:41.900Z,28.76
2023-04-29T17:26:08.481Z,28.77
2023-04-29T17:28:35.086Z,28.70
2023-04-29T17:31:02.413Z,28.87
2023-04-29T17:33:34.165Z,28.76
2023-04-29T17:36:04.515Z,28.50
2023-04-29T17:38:33.133Z,28.68
2023-04-29T17:40:59.660Z,28.37
2023-04-29T17:43:27.265Z,28.69
2023-04-29T17:45:53.813Z,28.84
2023-04-29T17:48:22.402Z,28.49
2023-04-29T17:50:49.328Z,28.65
2023-04-29T17:53:16.191Z,28.57
2023-04-29T17:55:44.772Z,28.66
2023-04-29T17:58:11.742Z,28.82
2023-04-29T18:00:38.828Z,28.52
2023-04-29T18:03:05.430Z,28.73
2023-04-29T18:05:32.030Z,28.76
2023-04-29T18:07:58.519Z,28.63
2023-04-29T18:10:25.076Z,28.67
2023-04-29T18:12:51.567Z,28.86
2023-04-29T18:15:18.234Z,28.88
2023-04-29T18:17:44.738Z,29.19
2023-04-29T18:20:12.904Z,29.31
2023-04-29T18:22:39.620Z,28.93
2023-04-29T18:25:06.551Z,28.79
2023-04-29T18:27:33.100Z,28.78
2023-04-29T18:29:59.617Z,29.13
2023-04-29T18:32:26.153Z,28.78
2023-04-29T18:34:52.679Z,28.84
2023-04-29T18:37:19.223Z,29.02
2023-04-29T18:39:45.735Z,28.91
2023-04-29T18:42:12.272Z,28.91
2023-04-29T18:44:38.993Z,28.95
2023-04-29T18:47:05.810Z,28.95
2023-04-29T18:49:32.436Z,28.99
2023-04-29T18:52:01.307Z,29.35
2023-04-29T18:54:28.135Z,29.63
2023-04-29T18:56:54.633Z,29.68
2023-04-29T18:59:21.287Z,29.76
2023-04-29T19:01:48.389Z,29.86
2023-04-29T19:04:15.466Z,29.88
2023-04-29T19:06:42.861Z,29.70
2023-04-29T19:09:09.712Z,29.80
2023-04-29T19:11:36.262Z,29.88
2023-04-29T19:14:04.257Z,30.10
2023-04-29T19:16:30.895Z,29.95
2023-04-29T19:18:57.481Z,30.11
2023-04-29T19:21:24.042Z,30.27
2023-04-29T19:23:50.549Z,30.29
2023-04-29T19:26:17.117Z,30.60
2023-04-29T19:28:43.614Z,30.76
2023-04-29T19:31:11.752Z,30.99
2023-04-29T19:33:38.401Z,31.62
2023-04-29T19:36:04.918Z,31.46
2023-04-29T19:38:31.452Z,31.29
2023-04-29T19:40:58.080Z,31.46
2023-04-29T19:43:24.582Z,31.49
2023-04-29T19:45:51.107Z,31.81
2023-04-29T19:48:17.652Z,31.91
2023-04-29T19:50:44.489Z,32.21
2023-04-29T19:53:11.511Z,32.27
2023-04-29T19:55:39.853Z,32.67
2023-04-29T19:58:06.726Z,32.61
2023-04-29T20:00:33.833Z,32.84
2023-04-29T20:03:00.752Z,33.03
2023-04-29T20:05:28.345Z,32.88
2023-04-29T20:07:55.294Z,33.13
2023-04-29T20:10:22.015Z,33.39
2023-04-29T20:12:48.586Z,33.50
2023-04-29T20:15:15.103Z,33.58
2023-04-29T20:17:41.710Z,33.79
2023-04-29T20:20:09.037Z,34.07
2023-04-29T20:22:35.751Z,34.01
2023-04-29T20:25:02.580Z,34.35
2023-04-29T20:27:29.093Z,34.27
2023-04-29T20:29:56.186Z,34.54
2023-04-29T20:32:23.122Z,34.74
2023-04-29T20:34:49.743Z,34.73
2023-04-29T20:37:16.285Z,35.25
2023-04-29T20:39:43.076Z,35.22
2023-04-29T20:42:09.640Z,35.00
2023-04-29T20:44:36.760Z,35.26
2023-04-29T20:47:04.457Z,35.67
2023-04-29T20:49:30.969Z,35.43
2023-04-29T20:51:58.328Z,35.79
2023-04-29T20:54:24.928Z,35.86
2023-04-29T20:56:51.517Z,35.83
2023-04-29T20:59:17.981Z,35.70
2023-04-29T21:01:45.570Z,35.73
2023-04-29T21:04:12.213Z,35.79
2023-04-29T21:06:38.797Z,35.89
2023-04-29T21:09:05.416Z,35.64
2023-04-29T21:11:31.948Z,35.84
2023-04-29T21:13:58.537Z,36.11
2023-04-29T21:16:25.274Z,36.32
2023-04-29T21:18:51.991Z,36.25
2023-04-29T21:21:18.495Z,36.38
2023-04-29T21:23:45.034Z,36.53
2023-04-29T21:26:11.665Z,36.44
2023-04-29T21:28:38.210Z,36.52
2023-04-29T21:31:04.905Z,36.54
2023-04-29T21:33:31.380Z,36.59
2023-04-29T21:35:57.946Z,36.79
2023-04-29T21:38:24.513Z,36.58
2023-04-29T21:40:51.309Z,36.67
2023-04-29T21:43:18.364Z,36.68
2023-04-29T21:45:45.607Z,36.48
2023-04-29T21:48:20.112Z,36.27
2023-04-29T21:50:46.674Z,36.05
2023-04-29T21:53:15.803Z,35.91
2023-04-29T21:55:43.061Z,36.00
2023-04-29T21:58:10.877Z,35.83
2023-04-29T22:00:39.175Z,35.78
2023-04-29T22:03:10.734Z,35.44
2023-04-29T22:05:37.283Z,35.47
2023-04-29T22:08:07.190Z,35.41
2023-04-29T22:10:33.938Z,35.02
2023-04-29T22:13:00.735Z,35.18
2023-04-29T22:15:29.124Z,35.25
2023-04-29T22:17:56.908Z,34.77
2023-04-29T22:20:23.619Z,35.03
2023-04-29T22:22:50.131Z,34.74
2023-04-29T22:25:18.075Z,34.66
2023-04-29T22:27:44.562Z,34.86
2023-04-29T22:30:11.510Z,34.87
2023-04-29T22:32:38.180Z,35.05
2023-04-29T22:35:04.977Z,35.00
2023-04-29T22:37:31.725Z,35.08
2023-04-29T22:39:58.357Z,34.69
2023-04-29T22:42:24.845Z,34.72
2023-04-29T22:44:51.382Z,34.78
2023-04-29T22:47:17.934Z,34.74
2023-04-29T22:49:44.451Z,34.81
2023-04-29T22:52:10.977Z,34.80
2023-04-29T22:54:37.518Z,34.72
2023-04-29T22:57:04.219Z,34.90
2023-04-29T22:59:30.925Z,34.90
2023-04-29T23:01:57.735Z,35.14
2023-04-29T23:04:24.785Z,35.27
2023-04-29T23:06:51.917Z,35.18
2023-04-29T23:09:18.442Z,35.02
2023-04-29T23:11:45.085Z,35.62
2023-04-29T23:14:11.678Z,35.46
2023-04-29T23:16:38.204Z,35.37
2023-04-29T23:19:04.796Z,35.37
2023-04-29T23:21:32.489Z,35.35
2023-04-29T23:23:59.123Z,35.56
2023-04-29T23:26:25.618Z,35.21
2023-04-29T23:28:52.189Z,35.28
2023-04-29T23:31:18.841Z,35.69
2023-04-29T23:33:45.429Z,35.18
2023-04-29T23:36:12.004Z,34.97
2023-04-29T23:38:38.487Z,35.22
2023-04-29T23:41:05.073Z,35.04
2023-04-29T23:43:32.142Z,35.52
2023-04-29T23:45:58.746Z,35.37
2023-04-29T23:48:25.402Z,35.19
2023-04-29T23:50:51.916Z,35.41
2023-04-29T23:53:18.685Z,35.39
2023-04-29T23:55:45.230Z,35.21
2023-04-29T23:58:11.743Z,35.13
